createdAt,value
2023-06-20T00:00:10.391Z,21.42
2023-06-20T00:02:58.435Z,19.65
2023-06-20T00:05:26.700Z,22.33
2023-06-20T00:07:55.575Z,20.65
2023-06-20T00:10:22.882Z,20.40
2023-06-20T00:12:50.657Z,20.25
2023-06-20T00:15:17.970Z,22.08
2023-06-20T00:17:46.838Z,20.38
2023-06-20T00:20:14.232Z,23.27
2023-06-20T00:22:41.756Z,22.15
2023-06-20T00:25:09.546Z,20.95
2023-06-20T00:27:37.422Z,21.05
2023-06-20T00:30:05.074Z,25.20
2023-06-20T00:32:35.369Z,22.35
2023-06-20T00:35:02.802Z,21.52
2023-06-20T00:37:30.571Z,21.98
2023-06-20T00:39:59.166Z,23.45
2023-06-20T00:42:26.810Z,21.63
2023-06-20T00:44:54.334Z,21.63
2023-06-20T00:47:22.351Z,21.27
2023-06-20T00:49:51.067Z,23.65
2023-06-20T00:52:23.310Z,21.40
2023-06-20T00:54:50.958Z,22.95
2023-06-20T00:57:20.721Z,21.58
2023-06-20T00:59:50.630Z,22.50
2023-06-20T01:02:18.688Z,23.58
2023-06-20T01:04:48.113Z,22.33
2023-06-20T01:07:25.509Z,24.30
2023-06-20T01:10:16.084Z,27.23
2023-06-20T01:12:56.692Z,24.15
2023-06-20T01:16:06.271Z,24.35
2023-06-20T01:18:59.052Z,24.85
2023-06-20T01:21:54.049Z,24.20
2023-06-20T01:24:47.746Z,23.42
2023-06-20T01:27:25.557Z,28.10
2023-06-20T01:30:04.470Z,24.25
2023-06-20T01:32:38.244Z,25.48
2023-06-20T01:35:11.685Z,24.20
2023-06-20T01:37:41.749Z,26.33
2023-06-20T01:40:11.931Z,24.95
2023-06-20T01:42:40.970Z,24.80
2023-06-20T01:45:11.152Z,25.35
2023-06-20T01:47:41.282Z,24.50
2023-06-20T01:50:10.048Z,26.15
2023-06-20T01:52:39.463Z,24.30
2023-06-20T01:55:11.654Z,24.23
2023-06-20T01:57:41.905Z,25.38
2023-06-20T02:00:11.592Z,25.45
2023-06-20T02:02:46.777Z,23.75
2023-06-20T02:05:16.579Z,25.27
2023-06-20T02:07:46.280Z,23.80
2023-06-20T02:10:15.220Z,23.38
2023-06-20T02:12:45.034Z,29.60
2023-06-20T02:15:15.259Z,24.67
2023-06-20T02:17:43.652Z,22.17
2023-06-20T02:20:12.103Z,25.10
2023-06-20T02:22:42.912Z,27.30
2023-06-20T02:25:16.066Z,23.17
2023-06-20T02:27:44.466Z,25.17
2023-06-20T02:30:13.798Z,24.15
2023-06-20T02:32:44.467Z,22.35
2023-06-20T02:35:14.919Z,25.77
2023-06-20T02:37:44.258Z,23.70
2023-06-20T02:40:12.597Z,23.40
2023-06-20T02:42:40.112Z,24.42
2023-06-20T02:45:08.459Z,23.38
2023-06-20T02:47:38.627Z,23.67
2023-06-20T02:50:45.757Z,23.35
2023-06-20T02:53:20.214Z,26.00
2023-06-20T02:55:56.908Z,22.85
2023-06-20T02:58:27.510Z,24.58
2023-06-20T03:00:58.701Z,23.83
2023-06-20T03:03:27.686Z,23.42
2023-06-20T03:05:59.464Z,26.30
2023-06-20T03:08:29.503Z,25.00
2023-06-20T03:10:59.567Z,26.08
2023-06-20T03:13:28.132Z,23.92
2023-06-20T03:15:56.762Z,23.00
2023-06-20T03:18:25.850Z,30.05
2023-06-20T03:20:54.462Z,23.63
2023-06-20T03:23:24.697Z,26.38
2023-06-20T03:25:52.659Z,27.10
2023-06-20T03:28:20.135Z,27.50
2023-06-20T03:30:53.104Z,25.05
2023-06-20T03:33:22.251Z,26.40
2023-06-20T03:35:50.217Z,26.65
2023-06-20T03:38:18.817Z,26.80
2023-06-20T03:40:46.852Z,27.15
2023-06-20T03:43:14.340Z,25.67
2023-06-20T03:45:42.336Z,29.30
2023-06-20T03:48:09.950Z,35.28
2023-06-20T03:50:38.685Z,29.17
2023-06-20T03:53:10.031Z,30.38
2023-06-20T03:55:37.687Z,32.05
2023-06-20T03:58:05.602Z,26.45
2023-06-20T04:00:34.476Z,25.70
2023-06-20T04:03:02.656Z,26.95
2023-06-20T04:05:31.288Z,25.60
2023-06-20T04:07:58.697Z,29.27
2023-06-20T04:10:30.116Z,26.38
2023-06-20T04:12:57.649Z,27.40
2023-06-20T04:15:25.483Z,28.08
2023-06-20T04:17:53.456Z,28.45
2023-06-20T04:20:21.256Z,27.95
2023-06-20T04:22:48.824Z,29.88
2023-06-20T04:25:17.472Z,26.92
2023-06-20T04:27:55.070Z,25.20
2023-06-20T04:30:24.825Z,29.30
2023-06-20T04:32:54.994Z,28.08
2023-06-20T04:35:23.724Z,26.95
2023-06-20T04:37:54.218Z,29.08
2023-06-20T04:40:24.906Z,35.15
2023-06-20T04:42:52.688Z,33.35
2023-06-20T04:45:20.394Z,36.58
2023-06-20T04:47:51.629Z,28.30
2023-06-20T04:50:20.091Z,29.30
2023-06-20T04:52:49.084Z,27.40
2023-06-20T04:55:17.133Z,27.38
2023-06-20T04:57:45.006Z,27.25
2023-06-20T05:00:15.559Z,26.83
2023-06-20T05:02:45.604Z,26.38
2023-06-20T05:05:14.246Z,26.00
2023-06-20T05:07:43.823Z,28.23
2023-06-20T05:10:11.798Z,27.17
2023-06-20T05:12:39.233Z,32.58
2023-06-20T05:15:07.692Z,23.60
2023-06-20T05:17:35.187Z,25.48
2023-06-20T05:20:07.771Z,24.52
2023-06-20T05:22:35.654Z,24.90
2023-06-20T05:25:03.320Z,24.10
2023-06-20T05:27:30.969Z,21.80
2023-06-20T05:29:58.696Z,23.02
2023-06-20T05:32:26.379Z,23.48
2023-06-20T05:34:54.558Z,25.60
2023-06-20T05:37:22.158Z,22.73
2023-06-20T05:39:49.952Z,27.08
2023-06-20T05:42:18.808Z,24.83
2023-06-20T05:44:46.747Z,21.35
2023-06-20T05:47:18.866Z,21.52
2023-06-20T05:49:48.138Z,21.23
2023-06-20T05:52:16.283Z,17.98
2023-06-20T05:54:46.941Z,17.27
2023-06-20T05:57:14.226Z,19.20
2023-06-20T05:59:41.966Z,16.75
2023-06-20T06:02:09.356Z,20.10
2023-06-20T06:04:37.308Z,16.58
2023-06-20T06:07:08.908Z,14.63
2023-06-20T06:09:36.540Z,27.58
2023-06-20T06:12:04.118Z,16.45
2023-06-20T06:14:31.953Z,13.35
2023-06-20T06:16:59.394Z,13.93
2023-06-20T06:19:27.334Z,15.80
2023-06-20T06:21:54.864Z,13.40
2023-06-20T06:24:23.586Z,14.27
2023-06-20T06:26:51.015Z,14.48
2023-06-20T06:29:19.406Z,13.27
2023-06-20T06:31:47.789Z,16.25
2023-06-20T06:34:20.176Z,17.20
2023-06-20T06:36:50.898Z,12.20
2023-06-20T06:39:19.792Z,10.70
2023-06-20T06:41:49.310Z,13.55
2023-06-20T06:44:17.591Z,15.07
2023-06-20T06:46:45.781Z,11.10
2023-06-20T06:49:14.617Z,12.15
2023-06-20T06:51:43.019Z,11.35
2023-06-20T06:54:11.381Z,11.10
2023-06-20T06:56:49.385Z,10.15
2023-06-20T06:59:17.505Z,10.00
2023-06-20T07:01:46.513Z,10.88
2023-06-20T07:04:18.478Z,10.80
2023-06-20T07:06:45.992Z,11.50
2023-06-20T07:09:13.551Z,9.23
2023-06-20T07:11:40.896Z,9.55
2023-06-20T07:14:08.653Z,12.00
2023-06-20T07:16:36.189Z,8.30
2023-06-20T07:19:03.923Z,9.60
2023-06-20T07:21:31.422Z,9.25
2023-06-20T07:23:59.260Z,14.98
2023-06-20T07:26:26.766Z,6.95
2023-06-20T07:28:54.894Z,8.00
2023-06-20T07:31:23.879Z,8.57
2023-06-20T07:33:51.603Z,12.82
2023-06-20T07:36:18.913Z,10.70
2023-06-20T07:38:46.762Z,8.93
2023-06-20T07:41:14.594Z,9.73
2023-06-20T07:43:42.365Z,6.93
2023-06-20T07:46:09.935Z,6.57
2023-06-20T07:48:40.829Z,7.00
2023-06-20T07:51:08.313Z,6.50
2023-06-20T07:53:35.902Z,7.93
2023-06-20T07:56:03.371Z,8.68
2023-06-20T07:58:31.004Z,6.45
2023-06-20T08:00:59.250Z,7.28
2023-06-20T08:03:27.580Z,5.80
2023-06-20T08:05:55.400Z,7.90
2023-06-20T08:08:23.211Z,9.45
2023-06-20T08:10:50.974Z,5.47
2023-06-20T08:13:18.915Z,12.95
2023-06-20T08:15:46.157Z,7.28
2023-06-20T08:18:13.825Z,6.40
2023-06-20T08:20:43.144Z,6.22
2023-06-20T08:23:10.786Z,6.97
2023-06-20T08:25:38.074Z,7.40
2023-06-20T08:28:15.016Z,7.53
2023-06-20T08:30:51.092Z,16.40
2023-06-20T08:33:22.651Z,9.30
2023-06-20T08:35:52.202Z,6.75
2023-06-20T08:38:21.339Z,6.18
2023-06-20T08:40:48.861Z,10.95
2023-06-20T08:43:20.332Z,5.80
2023-06-20T08:45:48.617Z,6.95
2023-06-20T08:48:18.613Z,7.45
2023-06-20T08:50:48.771Z,8.98
2023-06-20T08:53:21.103Z,7.43
2023-06-20T08:55:52.082Z,6.68
2023-06-20T08:58:20.216Z,8.25
2023-06-20T09:00:49.413Z,7.07
2023-06-20T09:03:18.720Z,6.13
2023-06-20T09:05:47.592Z,5.95
2023-06-20T09:08:16.797Z,19.80
2023-06-20T09:19:50.856Z,6.43
2023-06-20T09:22:22.763Z,10.10
2023-06-20T09:24:50.713Z,5.35
2023-06-20T09:27:18.117Z,6.75
2023-06-20T09:30:01.677Z,9.00
2023-06-20T09:32:37.944Z,9.57
2023-06-20T09:35:07.038Z,5.85
2023-06-20T09:37:52.886Z,6.65
2023-06-20T09:40:21.613Z,6.53
2023-06-20T09:42:49.685Z,8.10
2023-06-20T09:45:18.189Z,7.55
2023-06-20T09:47:46.679Z,5.85
2023-06-20T09:50:20.889Z,6.93
2023-06-20T09:52:52.618Z,6.70
2023-06-20T09:55:22.360Z,9.50
2023-06-20T09:57:52.427Z,6.20
2023-06-20T10:00:25.860Z,7.50
2023-06-20T10:02:54.804Z,6.93
2023-06-20T10:05:23.003Z,7.70
2023-06-20T10:07:50.945Z,6.25
2023-06-20T10:10:19.490Z,8.43
2023-06-20T10:12:48.613Z,10.35
2023-06-20T10:15:17.300Z,6.00
2023-06-20T10:17:48.568Z,7.43
2023-06-20T10:20:38.775Z,6.57
2023-06-20T10:23:09.324Z,8.07
2023-06-20T10:25:59.879Z,6.03
2023-06-20T10:28:27.652Z,10.90
2023-06-20T10:30:58.347Z,7.38
2023-06-20T10:33:33.219Z,5.35
2023-06-20T10:36:13.651Z,8.20
2023-06-20T10:38:55.351Z,12.75
2023-06-20T10:41:26.419Z,13.25
2023-06-20T10:44:06.325Z,9.43
2023-06-20T10:46:38.694Z,9.52
2023-06-20T10:49:10.344Z,6.93
2023-06-20T10:51:50.664Z,7.03
2023-06-20T10:54:20.290Z,9.13
2023-06-20T10:56:49.128Z,10.80
2023-06-20T10:59:21.561Z,9.70
2023-06-20T11:01:50.056Z,11.38
2023-06-20T11:04:21.416Z,17.33
2023-06-20T11:06:51.868Z,6.05
2023-06-20T11:09:26.775Z,8.93
2023-06-20T11:11:55.960Z,7.20
2023-06-20T11:14:25.864Z,22.67
2023-06-20T11:16:56.874Z,6.75
2023-06-20T11:19:36.873Z,8.85
2023-06-20T11:22:06.963Z,7.18
2023-06-20T11:24:37.574Z,7.65
2023-06-20T11:27:16.333Z,6.43
2023-06-20T11:29:44.537Z,7.20
2023-06-20T11:32:13.968Z,8.45
2023-06-20T11:34:55.933Z,6.13
2023-06-20T11:37:24.872Z,8.60
2023-06-20T11:39:54.844Z,7.28
2023-06-20T11:42:24.117Z,9.52
2023-06-20T11:44:52.596Z,6.65
2023-06-20T11:47:20.520Z,6.88
2023-06-20T11:49:48.752Z,7.18
2023-06-20T11:52:17.610Z,7.60
2023-06-20T11:54:53.413Z,6.60
2023-06-20T11:57:29.472Z,9.18
2023-06-20T12:00:00.564Z,7.40
2023-06-20T12:02:29.247Z,5.65
2023-06-20T12:04:59.653Z,6.10
2023-06-20T12:07:28.454Z,12.45
2023-06-20T12:10:06.197Z,5.43
2023-06-20T12:12:33.988Z,6.70
2023-06-20T12:15:01.972Z,7.40
2023-06-20T12:17:30.537Z,7.70
2023-06-20T12:19:59.121Z,6.57
2023-06-20T12:22:26.840Z,12.60
2023-06-20T12:24:54.532Z,7.22
2023-06-20T12:27:22.267Z,6.10
2023-06-20T12:29:49.702Z,9.40
2023-06-20T12:32:17.460Z,6.20
2023-06-20T12:34:45.717Z,7.35
2023-06-20T12:37:13.585Z,7.75
2023-06-20T12:39:41.157Z,8.77
2023-06-20T12:42:09.254Z,10.38
2023-06-20T12:44:36.667Z,7.30
2023-06-20T12:47:04.647Z,8.60
2023-06-20T12:49:32.062Z,6.68
2023-06-20T12:51:59.662Z,7.53
2023-06-20T12:54:27.854Z,11.75
2023-06-20T12:56:55.735Z,7.15
2023-06-20T12:59:23.191Z,5.80
2023-06-20T13:01:50.841Z,5.88
2023-06-20T13:04:18.499Z,6.15
2023-06-20T13:06:46.516Z,5.97
2023-06-20T13:09:13.933Z,8.25
2023-06-20T13:11:41.670Z,9.77
2023-06-20T13:14:09.016Z,8.88
2023-06-20T13:16:36.702Z,6.30
2023-06-20T13:19:04.846Z,7.40
2023-06-20T13:21:36.002Z,9.38
2023-06-20T13:24:09.626Z,7.80
2023-06-20T13:26:38.293Z,6.78
2023-06-20T13:29:05.919Z,6.70
2023-06-20T13:31:34.466Z,7.68
2023-06-20T13:34:02.222Z,12.23
2023-06-20T13:36:30.085Z,10.00
2023-06-20T13:38:58.708Z,6.43
2023-06-20T13:41:28.199Z,6.55
2023-06-20T13:43:56.215Z,8.52
2023-06-20T13:46:24.121Z,6.88
2023-06-20T13:48:54.558Z,8.40
2023-06-20T13:51:23.507Z,15.43
2023-06-20T13:53:51.275Z,7.07
2023-06-20T13:56:19.682Z,6.40
2023-06-20T13:58:48.093Z,7.45
2023-06-20T14:01:16.761Z,10.38
2023-06-20T14:03:44.126Z,7.75
2023-06-20T14:06:13.013Z,7.93
2023-06-20T14:08:44.695Z,8.00
2023-06-20T14:11:15.723Z,9.63
2023-06-20T14:13:43.206Z,8.30
2023-06-20T14:16:11.208Z,10.25
2023-06-20T14:18:38.915Z,8.02
2023-06-20T14:21:06.777Z,10.13
2023-06-20T14:23:34.259Z,7.47
2023-06-20T14:26:02.208Z,10.35
2023-06-20T14:28:31.135Z,8.52
2023-06-20T14:30:59.383Z,7.38
2023-06-20T14:33:26.973Z,7.28
2023-06-20T14:35:54.752Z,7.15
2023-06-20T14:38:22.315Z,7.15
2023-06-20T14:40:50.058Z,11.68
2023-06-20T14:43:17.660Z,7.65
2023-06-20T14:45:45.563Z,12.05
2023-06-20T14:48:13.347Z,7.82
2023-06-20T14:50:48.205Z,8.45
2023-06-20T14:53:17.715Z,12.63
2023-06-20T14:55:45.623Z,10.88
2023-06-20T14:58:13.332Z,12.98
2023-06-20T15:00:41.082Z,8.75
2023-06-20T15:03:09.286Z,11.60
2023-06-20T15:05:37.546Z,12.63
2023-06-20T15:08:05.265Z,8.45
2023-06-20T15:10:33.123Z,15.13
2023-06-20T15:13:00.855Z,10.55
2023-06-20T15:15:29.470Z,12.13
2023-06-20T15:17:57.891Z,14.90
2023-06-20T15:20:26.684Z,13.95
2023-06-20T15:22:57.255Z,16.98
2023-06-20T15:25:26.598Z,8.48
2023-06-20T15:27:54.328Z,12.25
2023-06-20T15:30:22.752Z,12.73
2023-06-20T15:32:54.770Z,8.88
2023-06-20T15:35:22.584Z,13.60
2023-06-20T15:37:50.662Z,18.65
2023-06-20T15:40:20.576Z,8.77
2023-06-20T15:42:48.176Z,8.95
2023-06-20T15:45:16.014Z,9.43
2023-06-20T15:47:44.143Z,7.47
2023-06-20T15:50:12.119Z,13.95
2023-06-20T15:52:40.729Z,8.13
2023-06-20T15:55:11.272Z,22.63
2023-06-20T15:57:40.182Z,9.65
2023-06-20T16:00:08.965Z,7.55
2023-06-20T16:02:37.428Z,8.45
2023-06-20T16:05:07.235Z,9.30
2023-06-20T16:07:35.344Z,15.30
2023-06-20T16:10:04.079Z,13.93
2023-06-20T16:12:31.904Z,8.57
2023-06-20T16:15:00.270Z,9.55
2023-06-20T16:17:27.626Z,11.40
2023-06-20T16:19:55.421Z,8.05
2023-06-20T16:22:24.433Z,9.38
2023-06-20T16:24:52.842Z,11.95
2023-06-20T16:27:20.130Z,8.02
2023-06-20T16:29:47.711Z,11.73
2023-06-20T16:32:15.151Z,9.35
2023-06-20T16:34:42.825Z,7.95
2023-06-20T16:37:11.556Z,8.82
2023-06-20T16:39:39.876Z,10.80
2023-06-20T16:42:07.884Z,14.70
2023-06-20T16:44:35.844Z,17.55
2023-06-20T16:47:04.129Z,16.73
2023-06-20T16:49:31.859Z,8.23
2023-06-20T16:51:59.217Z,15.00
2023-06-20T16:54:26.927Z,14.57
2023-06-20T16:56:54.260Z,10.50
2023-06-20T16:59:22.123Z,8.30
2023-06-20T17:01:49.610Z,7.35
2023-06-20T17:04:17.590Z,11.18
2023-06-20T17:06:44.985Z,9.93
2023-06-20T17:09:13.266Z,10.43
2023-06-20T17:11:43.826Z,15.43
2023-06-20T17:14:12.993Z,9.82
2023-06-20T17:16:40.688Z,18.08
2023-06-20T17:19:08.967Z,11.40
2023-06-20T17:21:38.718Z,8.75
2023-06-20T17:24:06.681Z,14.50
2023-06-20T17:26:35.222Z,8.48
2023-06-20T17:29:03.888Z,17.88
2023-06-20T17:31:34.672Z,15.15
2023-06-20T17:34:04.669Z,9.68
2023-06-20T17:36:33.035Z,9.98
2023-06-20T17:39:04.164Z,9.88
2023-06-20T17:41:35.725Z,12.30
2023-06-20T17:44:03.534Z,12.02
2023-06-20T17:46:35.658Z,12.15
2023-06-20T17:49:08.733Z,50.42
2023-06-20T17:51:38.012Z,15.43
2023-06-20T17:54:07.166Z,15.25
2023-06-20T17:56:36.407Z,14.93
2023-06-20T17:59:05.569Z,10.93
2023-06-20T18:01:37.131Z,13.30
2023-06-20T18:04:05.435Z,16.40
2023-06-20T18:06:32.992Z,11.25
2023-06-20T18:09:00.817Z,12.18
2023-06-20T18:11:28.687Z,13.77
2023-06-20T18:14:02.684Z,14.20
2023-06-20T18:16:32.542Z,31.80
2023-06-20T18:19:00.665Z,12.98
2023-06-20T18:21:35.374Z,17.15
2023-06-20T18:24:04.258Z,12.73
2023-06-20T18:26:35.383Z,12.27
2023-06-20T18:29:03.679Z,16.48
2023-06-20T18:31:40.303Z,11.48
2023-06-20T18:34:08.756Z,16.08
2023-06-20T18:36:37.077Z,14.02
2023-06-20T18:39:05.484Z,27.90
2023-06-20T18:41:34.426Z,18.63
2023-06-20T18:44:13.759Z,14.43
2023-06-20T18:46:49.139Z,16.70
2023-06-20T18:49:18.072Z,13.95
2023-06-20T18:51:48.239Z,18.50
2023-06-20T18:54:24.415Z,19.77
2023-06-20T18:56:52.303Z,18.23
2023-06-20T18:59:21.553Z,25.80
2023-06-20T19:01:49.923Z,22.52
2023-06-20T19:04:18.438Z,24.23
2023-06-20T19:06:46.236Z,24.58
2023-06-20T19:09:16.434Z,20.10
2023-06-20T19:11:44.695Z,22.80
2023-06-20T19:14:12.971Z,20.17
2023-06-20T19:16:40.878Z,17.42
2023-06-20T19:19:09.853Z,20.33
2023-06-20T19:21:39.288Z,22.58
2023-06-20T19:24:07.579Z,25.05
2023-06-20T19:26:35.351Z,22.08
2023-06-20T19:29:03.173Z,23.70
2023-06-20T19:31:31.574Z,21.38
2023-06-20T19:33:59.965Z,21.65
2023-06-20T19:36:28.810Z,19.13
2023-06-20T19:38:56.846Z,22.77
2023-06-20T19:41:24.735Z,22.75
2023-06-20T19:43:53.037Z,22.52
2023-06-20T19:46:20.802Z,19.25
2023-06-20T19:48:50.181Z,22.20
2023-06-20T19:51:19.940Z,25.27
2023-06-20T19:53:49.597Z,20.90
2023-06-20T19:56:17.696Z,22.20
2023-06-20T19:58:47.982Z,22.67
2023-06-20T20:01:16.847Z,20.77
2023-06-20T20:03:47.061Z,25.40
2023-06-20T20:06:16.580Z,25.65
2023-06-20T20:08:45.277Z,22.85
2023-06-20T20:11:15.208Z,24.88
2023-06-20T20:13:44.941Z,21.75
2023-06-20T20:16:15.815Z,20.33
2023-06-20T20:18:45.192Z,25.38
2023-06-20T20:21:13.765Z,20.95
2023-06-20T20:23:44.319Z,23.17
2023-06-20T20:26:15.728Z,21.80
2023-06-20T20:28:44.743Z,24.25
2023-06-20T20:31:13.338Z,23.95
2023-06-20T20:33:43.024Z,21.90
2023-06-20T20:36:11.026Z,28.23
2023-06-20T20:38:39.141Z,28.50
2023-06-20T20:41:07.122Z,24.20
2023-06-20T20:43:36.129Z,23.90
2023-06-20T20:46:04.225Z,21.75
2023-06-20T20:48:33.045Z,19.95
2023-06-20T20:51:01.118Z,20.20
2023-06-20T20:53:29.283Z,20.42
2023-06-20T20:55:57.073Z,20.83
2023-06-20T20:58:25.475Z,22.42
2023-06-20T21:00:53.254Z,21.80
2023-06-20T21:03:21.197Z,22.73
2023-06-20T21:05:49.084Z,21.52
2023-06-20T21:08:17.201Z,19.65
2023-06-20T21:10:46.347Z,20.10
2023-06-20T21:13:14.832Z,24.10
2023-06-20T21:15:44.241Z,20.52
2023-06-20T21:18:13.122Z,21.67
2023-06-20T21:20:40.766Z,20.50
2023-06-20T21:23:09.248Z,21.73
2023-06-20T21:25:37.043Z,21.55
2023-06-20T21:28:05.049Z,22.48
2023-06-20T21:30:32.803Z,19.95
2023-06-20T21:33:06.334Z,19.38
2023-06-20T21:35:34.868Z,19.17
2023-06-20T21:38:03.556Z,18.40
2023-06-20T21:40:31.094Z,20.98
2023-06-20T21:42:58.980Z,22.63
2023-06-20T21:45:26.861Z,16.83
2023-06-20T21:47:55.243Z,17.48
2023-06-20T21:50:27.921Z,15.48
2023-06-20T21:52:56.330Z,16.52
2023-06-20T21:55:24.407Z,16.02
2023-06-20T21:57:52.850Z,14.68
2023-06-20T22:00:21.105Z,16.25
2023-06-20T22:02:49.794Z,14.27
2023-06-20T22:05:17.573Z,13.75
2023-06-20T22:07:45.932Z,13.57
2023-06-20T22:10:13.544Z,15.20
2023-06-20T22:12:43.838Z,16.50
2023-06-20T22:15:11.779Z,13.10
2023-06-20T22:17:39.950Z,15.50
2023-06-20T22:20:11.308Z,16.88
2023-06-20T22:22:39.649Z,17.02
2023-06-20T22:25:08.600Z,14.65
2023-06-20T22:27:36.945Z,22.17
2023-06-20T22:30:05.904Z,15.50
2023-06-20T22:32:33.883Z,16.67
2023-06-20T22:35:01.587Z,17.20
2023-06-20T22:37:30.082Z,13.85
2023-06-20T22:39:57.840Z,14.52
2023-06-20T22:42:25.790Z,14.43
2023-06-20T22:44:53.420Z,17.38
2023-06-20T22:47:21.562Z,16.27
2023-06-20T22:49:49.197Z,20.05
2023-06-20T22:52:17.051Z,16.30
2023-06-20T22:54:45.860Z,24.95
2023-06-20T22:57:13.882Z,16.42
2023-06-20T22:59:41.289Z,20.00
2023-06-20T23:02:09.481Z,17.95
2023-06-20T23:04:37.199Z,17.25
2023-06-20T23:07:05.114Z,18.65
2023-06-20T23:09:32.569Z,19.13
2023-06-20T23:12:00.652Z,18.67
2023-06-20T23:14:28.399Z,18.73
2023-06-20T23:16:56.160Z,17.73
2023-06-20T23:19:23.690Z,20.00
2023-06-20T23:21:54.535Z,22.40
2023-06-20T23:24:23.209Z,19.35
2023-06-20T23:26:50.938Z,20.25
2023-06-20T23:29:19.588Z,16.85
2023-06-20T23:31:49.046Z,17.10
2023-06-20T23:34:17.136Z,19.00
2023-06-20T23:36:45.185Z,19.23
2023-06-20T23:39:12.770Z,21.77
2023-06-20T23:41:40.706Z,18.77
2023-06-20T23:44:14.304Z,20.95
2023-06-20T23:46:42.342Z,20.13
2023-06-20T23:49:09.941Z,17.42
2023-06-20T23:51:37.773Z,18.80
2023-06-20T23:54:06.170Z,17.33
2023-06-20T23:56:36.878Z,19.80
2023-06-20T23:59:04.887Z,19.10
